Time;durP1;ratioP1;P1;durP2;ratioP2;P2;SDS_P1;SDS_P2;PMS_P1;PMS_P2;Temp;Humidity;BMP_temperature;BMP_pressure;BME280_temperature;BME280_humidity;BME280_pressure;Samples;Min_cycle;Max_cycle;Signal;HPM_P1;HPM_P2
2022/04/05 00:34:25;;;;;;;16.27;14.30;;;;;;;3.91;65.85;94667.38;5010015;28;20052;-64
2022/04/05 00:36:54;;;;;;;14.38;11.80;;;;;;;4.34;66.80;94760.50;5010903;28;20041;-64
2022/04/05 00:39:21;;;;;;;16.80;13.60;;;;;;;4.55;65.35;94726.13;5010926;28;20061;-63
2022/04/05 00:41:48;;;;;;;15.68;13.05;;;;;;;4.59;67.40;94779.84;5010397;28;20030;-63
2022/04/05 00:44:13;;;;;;;13.43;10.13;;;;;;;4.74;67.42;94848.22;5010887;28;20030;-63
2022/04/05 00:46:39;;;;;;;11.10;9.35;;;;;;;3.40;65.83;94586.13;5010674;28;20557;-63
2022/04/05 00:49:04;;;;;;;17.85;12.98;;;;;;;4.73;65.23;94765.00;4992932;28;20030;-63
2022/04/05 00:51:30;;;;;;;14.65;13.15;;;;;;;5.07;64.04;94778.16;5010426;28;20109;-64
2022/04/05 00:53:59;;;;;;;13.35;10.00;;;;;;;5.06;65.10;94821.38;5010785;28;20045;-64
2022/04/05 00:56:27;;;;;;;13.30;10.38;;;;;;;4.88;65.63;94793.06;5010763;28;20026;-63
2022/04/05 00:58:53;;;;;;;14.25;12.00;;;;;;;4.05;64.36;94652.53;5010793;28;20029;-63
2022/04/05 01:01:21;;;;;;;13.93;10.88;;;;;;;5.26;64.66;94823.03;5010246;28;20109;-64
2022/04/05 01:03:49;;;;;;;13.57;10.50;;;;;;;5.33;64.48;94820.09;5010849;28;20037;-63
2022/04/05 01:06:23;;;;;;;15.23;8.68;;;;;;;4.96;64.09;94800.38;5014288;28;20387;-63
2022/04/05 01:08:49;;;;;;;9.93;7.90;;;;;;;4.84;63.36;94786.75;5014241;28;20383;-64
2022/04/05 01:11:15;;;;;;;16.20;11.85;;;;;;;4.17;63.09;94631.91;5013770;28;20034;-64
2022/04/05 01:13:41;;;;;;;13.43;11.02;;;;;;;5.08;62.22;94748.06;5013983;28;20534;-63
2022/04/05 01:16:07;;;;;;;11.65;8.85;;;;;;;4.08;62.35;94680.91;5014110;28;20026;-63
2022/04/05 01:18:34;;;;;;;12.38;9.05;;;;;;;5.13;63.05;94787.56;5014021;28;20130;-64
2022/04/05 01:20:59;;;;;;;8.57;6.75;;;;;;;5.02;63.81;94824.84;5013559;28;20036;-63
2022/04/05 01:23:25;;;;;;;9.63;8.43;;;;;;;3.64;64.39;94638.88;5013965;28;20026;-63
2022/04/05 01:25:52;;;;;;;11.73;10.48;;;;;;;4.39;63.63;94704.41;5013624;28;20771;-63
2022/04/05 01:28:19;;;;;;;12.52;10.70;;;;;;;3.52;63.19;94526.09;4996107;28;20037;-63
2022/04/05 01:30:44;;;;;;;11.13;8.80;;;;;;;3.94;63.57;94653.66;5013476;28;20021;-63
2022/04/05 01:33:10;;;;;;;11.23;8.48;;;;;;;4.81;64.12;94743.31;5013760;28;20528;-63
2022/04/05 01:35:35;;;;;;;10.23;7.40;;;;;;;4.74;64.83;94774.47;5013740;28;20391;-63
2022/04/05 01:38:03;;;;;;;11.02;8.05;;;;;;;4.33;64.74;94723.94;5013456;28;20034;-63
2022/04/05 01:40:29;;;;;;;8.48;7.57;;;;;;;4.02;64.55;94679.38;5013193;28;20105;-63
2022/04/05 01:42:55;;;;;;;8.73;7.55;;;;;;;4.00;64.68;94668.38;5013461;28;20026;-63
2022/04/05 01:45:20;;;;;;;12.38;10.57;;;;;;;4.60;64.74;94740.03;5013436;28;20221;-63
2022/04/05 01:47:46;;;;;;;11.07;8.52;;;;;;;3.91;64.81;94652.34;5013647;28;20030;-64
2022/04/05 01:50:12;;;;;;;11.70;10.35;;;;;;;4.83;64.05;94730.66;5013040;28;20018;-64
2022/04/05 01:52:38;;;;;;;12.88;11.43;;;;;;;5.54;63.62;94837.31;5013538;28;20080;-62
2022/04/05 01:55:05;;;;;;;11.55;8.93;;;;;;;4.81;63.83;94753.06;5013370;28;20022;-63
2022/04/05 01:57:31;;;;;;;12.40;11.13;;;;;;;4.68;64.39;94693.91;5013290;28;20034;-62
2022/04/05 01:59:56;;;;;;;13.57;11.15;;;;;;;4.08;65.89;94627.50;5013311;28;20032;-62
2022/04/05 02:02:22;;;;;;;13.20;10.88;;;;;;;4.84;65.83;94753.28;5012679;28;20101;-62
2022/04/05 02:04:47;;;;;;;12.57;11.30;;;;;;;3.72;66.51;94616.44;5012031;28;20072;-63
2022/04/05 02:07:21;;;;;;;11.82;10.45;;;;;;;3.49;66.33;94524.03;5012496;28;20022;-63
2022/04/05 02:09:49;;;;;;;13.93;11.90;;;;;;;4.33;65.79;94661.53;5013074;28;20026;-63
2022/04/05 02:12:17;;;;;;;12.90;11.68;;;;;;;3.85;65.20;94556.13;5012601;28;20018;-63
2022/04/05 02:14:44;;;;;;;11.57;10.25;;;;;;;5.05;64.53;94798.72;5012784;28;20087;-63
2022/04/05 02:17:09;;;;;;;10.93;9.77;;;;;;;4.55;65.35;94721.66;5013082;28;20018;-63
2022/04/05 02:19:36;;;;;;;13.05;10.45;;;;;;;5.43;63.32;94760.13;5013075;28;20022;-63
2022/04/05 02:22:02;;;;;;;10.88;9.77;;;;;;;5.43;63.51;94756.69;5012520;28;20036;-63
2022/04/05 02:24:28;;;;;;;10.23;7.88;;;;;;;5.11;62.69;94715.88;5012554;28;20399;-63
2022/04/05 02:26:54;;;;;;;11.80;9.95;;;;;;;5.50;60.61;94687.78;5012921;28;20014;-63
2022/04/05 02:29:20;;;;;;;12.32;10.57;;;;;;;4.80;60.17;94509.06;4995161;28;20032;-63
2022/04/05 02:31:45;;;;;;;10.35;9.32;;;;;;;5.83;59.82;94696.56;5012170;28;20030;-64
2022/04/05 02:34:11;;;;;;;8.13;6.65;;;;;;;5.20;59.58;94613.22;5012430;28;20056;-63
2022/04/05 02:36:37;;;;;;;10.20;9.20;;;;;;;4.77;59.25;94509.66;5012568;28;20080;-63
2022/04/05 02:39:04;;;;;;;10.68;8.38;;;;;;;4.98;58.84;94553.13;5012388;28;20026;-63
2022/04/05 02:41:30;;;;;;;8.73;7.93;;;;;;;5.93;58.07;94664.78;5012258;28;20511;-63
2022/04/05 02:43:56;;;;;;;10.13;8.07;;;;;;;6.03;58.23;94717.44;5012476;28;20111;-64
2022/04/05 02:46:21;;;;;;;6.80;5.97;;;;;;;4.25;59.15;94480.47;5012107;28;20091;-63
2022/04/05 02:48:48;;;;;;;7.68;5.63;;;;;;;5.06;57.48;94557.75;5012411;28;20475;-63
2022/04/05 02:51:15;;;;;;;4.82;3.85;;;;;;;4.68;58.70;94546.38;5011828;28;20029;-63
2022/04/05 02:53:42;;;;;;;7.55;6.78;;;;;;;4.84;57.01;94499.53;5012230;28;20075;-63
2022/04/05 02:56:09;;;;;;;7.15;6.15;;;;;;;5.58;57.06;94632.53;5012483;28;20021;-63
2022/04/05 02:58:36;;;;;;;6.43;5.78;;;;;;;6.24;57.13;94728.50;5012153;28;20030;-63
2022/04/05 03:01:02;;;;;;;9.45;7.40;;;;;;;7.27;54.34;94708.06;4994260;28;20113;-63
2022/04/05 03:03:28;;;;;;;8.05;6.63;;;;;;;6.79;55.40;94726.09;4994657;28;20544;-63
2022/04/05 03:05:53;;;;;;;7.38;6.68;;;;;;;6.45;55.70;94649.78;5012154;28;20042;-64
2022/04/05 03:08:19;;;;;;;6.55;5.88;;;;;;;6.53;55.31;94693.22;5011875;28;20053;-63
2022/04/05 03:10:45;;;;;;;7.55;6.82;;;;;;;7.01;54.29;94715.69;5011652;28;20479;-63
2022/04/05 03:13:11;;;;;;;8.05;7.35;;;;;;;5.72;54.50;94540.22;5011987;28;20040;-63
2022/04/05 03:15:37;;;;;;;5.60;5.00;;;;;;;5.69;54.69;94609.44;5012028;28;20022;-62
2022/04/05 03:18:02;;;;;;;7.20;5.70;;;;;;;6.48;55.17;94688.81;5011827;28;20022;-63
2022/04/05 03:20:28;;;;;;;7.88;6.35;;;;;;;6.39;54.69;94678.09;5011369;28;20057;-63
2022/04/05 03:22:55;;;;;;;6.80;6.15;;;;;;;6.32;54.59;94690.13;5011855;28;20021;-63
2022/04/05 03:25:21;;;;;;;9.20;7.40;;;;;;;5.80;53.54;94529.03;5011754;28;20034;-63
2022/04/05 03:27:46;;;;;;;7.03;6.10;;;;;;;5.17;54.41;94460.91;5011175;28;20026;-63
2022/04/05 03:30:14;;;;;;;6.35;5.05;;;;;;;5.99;55.04;94645.97;4993494;28;20030;-63
2022/04/05 03:32:39;;;;;;;9.43;7.65;;;;;;;5.70;53.59;94521.28;5011461;28;20515;-62
2022/04/05 03:35:06;;;;;;;6.43;5.72;;;;;;;5.40;54.84;94511.97;5011690;28;20109;-64
2022/04/05 03:37:31;;;;;;;9.40;7.57;;;;;;;7.07;54.02;94705.81;5011544;28;20022;-63
2022/04/05 03:39:56;;;;;;;8.73;7.40;;;;;;;5.64;54.44;94494.19;5011596;28;20026;-65
2022/04/05 03:42:22;;;;;;;8.07;7.28;;;;;;;6.41;54.83;94625.00;5011225;28;20030;-63
2022/04/05 03:44:48;;;;;;;9.95;6.68;;;;;;;5.73;54.76;94524.13;5011435;28;20497;-64
2022/04/05 03:47:14;;;;;;;8.88;6.15;;;;;;;6.36;54.48;94617.16;5011411;28;20034;-65
2022/04/05 03:49:39;;;;;;;9.60;4.97;;;;;;;6.12;54.61;94583.72;5011658;28;20022;-65
2022/04/05 03:52:05;;;;;;;10.35;6.57;;;;;;;6.17;53.78;94516.84;5011023;28;20050;-64
2022/04/05 03:54:30;;;;;;;6.97;5.40;;;;;;;6.62;54.78;94687.00;5011434;28;20101;-64
2022/04/05 03:56:56;;;;;;;6.78;5.90;;;;;;;6.42;54.59;94629.97;5011366;28;20033;-62
2022/04/05 03:59:21;;;;;;;8.20;6.72;;;;;;;6.32;54.57;94537.69;5011018;28;20030;-62
2022/04/05 04:01:47;;;;;;;7.22;4.25;;;;;;;5.53;55.64;94505.16;5010876;28;20028;-63
2022/04/05 04:04:12;;;;;;;7.43;6.55;;;;;;;5.54;55.21;94454.78;5011249;28;20026;-64
2022/04/05 04:06:37;;;;;;;7.75;6.97;;;;;;;5.52;56.35;94514.16;5011030;28;20073;-63
2022/04/05 04:09:03;;;;;;;7.28;6.57;;;;;;;6.55;55.93;94660.16;5010988;28;20026;-62
2022/04/05 04:11:29;;;;;;;8.48;7.35;;;;;;;6.09;54.77;94491.09;5010822;28;20022;-63
2022/04/05 04:13:54;;;;;;;7.95;6.90;;;;;;;5.86;54.99;94475.09;4993412;28;20390;-63
2022/04/05 04:16:20;;;;;;;8.13;7.28;;;;;;;6.76;53.44;94570.75;5011130;28;20029;-64
2022/04/05 04:18:45;;;;;;;7.60;6.88;;;;;;;7.47;53.45;94719.34;5011047;28;20022;-64
2022/04/05 04:21:11;;;;;;;6.15;5.55;;;;;;;6.90;54.31;94640.25;5010577;28;20029;-64
2022/04/05 04:23:36;;;;;;;7.65;6.43;;;;;;;6.53;53.33;94508.28;5011109;28;20030;-63
2022/04/05 04:26:02;;;;;;;4.70;3.83;;;;;;;5.99;54.88;94590.53;5010893;28;20088;-64
2022/04/05 04:28:28;;;;;;;5.35;4.85;;;;;;;5.92;54.39;94495.06;5010980;28;20072;-64
2022/04/05 04:30:54;;;;;;;6.35;5.72;;;;;;;5.79;52.96;94421.91;5010692;28;20033;-66
2022/04/05 04:33:19;;;;;;;6.05;5.45;;;;;;;8.63;52.53;94682.72;5010842;28;20030;-65
2022/04/05 04:35:45;;;;;;;7.18;6.47;;;;;;;8.84;50.38;94658.03;5010883;28;20110;-65
2022/04/05 04:38:12;;;;;;;7.00;6.30;;;;;;;9.27;50.94;94672.59;5010955;28;20022;-65
2022/04/05 04:40:37;;;;;;;6.85;6.25;;;;;;;7.35;52.05;94584.13;5013759;28;20025;-64
2022/04/05 04:43:03;;;;;;;8.75;5.80;;;;;;;6.93;52.81;94599.22;5014623;28;20026;-63
2022/04/05 04:45:31;;;;;;;4.93;4.43;;;;;;;7.05;53.57;94697.34;5014337;28;20638;-63
2022/04/05 04:47:57;;;;;;;6.38;5.72;;;;;;;6.83;53.48;94631.91;4996736;28;20030;-64
2022/04/05 04:50:23;;;;;;;6.35;5.70;;;;;;;7.01;53.61;94659.34;5014050;28;20036;-62
2022/04/05 04:52:48;;;;;;;7.80;6.05;;;;;;;7.44;53.14;94674.94;5014582;28;20406;-64
2022/04/05 04:55:14;;;;;;;7.45;6.10;;;;;;;7.34;53.84;94683.88;5014648;28;20084;-63
2022/04/05 04:57:40;;;;;;;6.70;5.88;;;;;;;6.67;52.80;94589.13;5014145;28;20026;-63
2022/04/05 05:00:06;;;;;;;6.90;5.38;;;;;;;7.12;53.08;94675.84;5013977;28;20774;-63
2022/04/05 05:02:45;;;;;;;5.85;5.32;;;;;;;6.51;52.48;94590.47;5013965;28;20072;-63
2022/04/05 05:05:12;;;;;;;8.07;6.38;;;;;;;7.78;51.73;94685.91;5014271;28;20048;-64
2022/04/05 05:07:37;;;;;;;7.15;6.45;;;;;;;6.87;51.63;94572.09;4996494;28;20029;-65
2022/04/05 05:10:05;;;;;;;6.30;5.70;;;;;;;6.82;51.21;94564.28;5013836;28;20022;-65
2022/04/05 05:12:30;;;;;;;7.35;5.28;;;;;;;7.55;52.50;94692.19;5014079;28;20034;-63
2022/04/05 05:14:56;;;;;;;7.90;6.45;;;;;;;6.26;51.94;94483.41;5014104;28;20032;-69
2022/04/05 05:17:21;;;;;;;6.38;5.25;;;;;;;5.93;52.73;94493.22;5013801;28;20030;-61
2022/04/05 05:19:46;;;;;;;8.55;6.07;;;;;;;5.93;53.39;94516.97;5013401;28;20522;-62
2022/04/05 05:22:13;;;;;;;7.45;6.75;;;;;;;6.01;52.70;94478.59;5013784;28;20506;-63
2022/04/05 05:24:40;;;;;;;5.10;3.85;;;;;;;6.87;53.65;94630.28;5014167;28;20049;-63
2022/04/05 05:27:05;;;;;;;5.97;5.03;;;;;;;7.45;52.36;94718.84;5014100;28;20101;-61
2022/04/05 05:29:30;;;;;;;5.90;5.18;;;;;;;6.58;53.16;94622.56;5013815;28;20541;-63
2022/04/05 05:31:56;;;;;;;6.43;5.00;;;;;;;6.52;54.13;94631.69;5013432;28;20030;-65
2022/04/05 05:34:23;;;;;;;7.18;6.47;;;;;;;6.12;53.47;94530.91;5013322;28;20025;-65
2022/04/05 05:36:49;;;;;;;7.00;6.30;;;;;;;7.18;53.94;94669.38;5013158;28;20018;-64
2022/04/05 05:39:14;;;;;;;7.90;6.93;;;;;;;7.68;53.56;94669.44;5013539;28;20026;-63
2022/04/05 05:41:40;;;;;;;5.15;4.03;;;;;;;5.58;55.06;94495.34;5012720;28;20030;-62
2022/04/05 05:44:05;;;;;;;7.20;5.47;;;;;;;6.75;54.41;94638.66;5013524;28;20026;-60
2022/04/05 05:46:31;;;;;;;7.63;5.97;;;;;;;6.18;55.34;94579.13;5013283;28;20121;-60
2022/04/05 05:48:56;;;;;;;7.30;6.60;;;;;;;6.76;55.82;94600.59;4995885;28;20022;-60
2022/04/05 05:51:22;;;;;;;6.38;5.78;;;;;;;7.06;54.62;94706.84;5011450;28;20026;-60
2022/04/05 05:53:47;;;;;;;6.45;5.72;;;;;;;5.64;55.25;94507.38;5013297;28;20175;-60
2022/04/05 05:56:13;;;;;;;7.55;6.85;;;;;;;7.01;56.77;94710.41;5013178;28;20105;-60
2022/04/05 05:58:38;;;;;;;6.93;6.05;;;;;;;6.91;57.30;94715.88;5013244;28;20387;-61
2022/04/05 06:01:04;;;;;;;5.00;4.18;;;;;;;6.59;57.61;94702.63;5012678;28;20026;-61
2022/04/05 06:03:29;;;;;;;8.48;5.95;;;;;;;6.50;58.45;94703.31;5013163;28;20395;-61
2022/04/05 06:05:54;;;;;;;6.60;6.00;;;;;;;6.64;59.11;94737.69;5012289;28;20033;-61
2022/04/05 06:08:20;;;;;;;5.68;4.45;;;;;;;6.24;60.40;94712.66;5012823;28;20041;-60
2022/04/05 06:10:45;;;;;;;8.25;6.78;;;;;;;6.53;60.56;94760.06;5012852;28;20076;-62
2022/04/05 06:13:12;;;;;;;6.85;6.15;;;;;;;6.20;61.41;94751.31;5013110;28;20022;-63
2022/04/05 06:15:37;;;;;;;8.32;7.30;;;;;;;5.73;61.28;94623.59;5013046;28;20474;-63
2022/04/05 06:18:03;;;;;;;6.82;5.55;;;;;;;5.25;62.28;94583.38;5013036;28;20030;-63
2022/04/05 06:20:29;;;;;;;10.88;9.77;;;;;;;6.76;61.96;94724.03;5011675;28;20088;-62
2022/04/05 06:22:58;;;;;;;9.75;8.25;;;;;;;6.24;61.73;94702.91;5012685;28;20025;-62
2022/04/05 06:25:27;;;;;;;9.18;7.85;;;;;;;4.76;63.72;94532.59;5012783;28;20022;-62
2022/04/05 06:27:53;;;;;;;9.35;8.15;;;;;;;6.10;62.95;94696.78;5012531;28;20022;-62
2022/04/05 06:30:19;;;;;;;8.98;7.30;;;;;;;4.96;64.77;94571.06;5012291;28;20034;-63
2022/04/05 06:32:46;;;;;;;10.80;8.73;;;;;;;5.85;64.39;94689.19;5012586;28;20049;-62
2022/04/05 06:35:12;;;;;;;8.13;5.97;;;;;;;5.21;64.61;94636.66;5011756;28;20422;-62
2022/04/05 06:37:38;;;;;;;12.77;9.15;;;;;;;4.93;64.81;94553.97;5012765;28;20025;-62
2022/04/05 06:40:05;;;;;;;9.48;7.10;;;;;;;5.06;65.23;94592.03;5012167;28;20025;-62
2022/04/05 06:42:31;;;;;;;12.90;10.77;;;;;;;5.10;64.51;94548.22;5012572;28;20034;-63
2022/04/05 06:44:57;;;;;;;12.40;11.10;;;;;;;5.82;63.95;94616.63;4994630;28;20033;-63
2022/04/05 06:47:22;;;;;;;12.68;11.35;;;;;;;5.82;63.73;94590.22;5012234;28;20030;-61
2022/04/05 06:49:47;;;;;;;11.48;10.27;;;;;;;6.59;63.78;94714.00;4994647;28;20714;-62
2022/04/05 06:52:13;;;;;;;11.75;10.55;;;;;;;6.13;62.45;94590.56;5011296;28;20037;-63
2022/04/05 06:54:39;;;;;;;11.55;8.63;;;;;;;5.58;63.40;94573.69;5012416;28;20028;-62
2022/04/05 06:57:04;;;;;;;11.48;10.20;;;;;;;5.57;62.45;94506.94;5012161;28;20459;-63
2022/04/05 06:59:30;;;;;;;11.48;10.32;;;;;;;7.34;62.51;94749.22;5012204;28;20191;-63
2022/04/05 07:01:57;;;;;;;9.98;8.98;;;;;;;6.27;62.25;94584.56;5010938;28;20045;-63
2022/04/05 07:04:22;;;;;;;10.27;8.80;;;;;;;6.10;64.48;94629.97;5011953;28;20630;-63
2022/04/05 07:06:48;;;;;;;11.13;9.38;;;;;;;6.23;64.07;94634.50;5010986;28;20044;-63
2022/04/05 07:09:13;;;;;;;10.05;8.48;;;;;;;6.49;60.91;94582.03;5011921;28;20021;-63
2022/04/05 07:11:38;;;;;;;11.40;9.10;;;;;;;6.92;61.53;94684.91;5011607;28;20021;-63
2022/04/05 07:14:04;;;;;;;12.65;8.30;;;;;;;7.53;61.04;94771.91;5011666;28;20022;-62
2022/04/05 07:16:29;;;;;;;8.85;7.95;;;;;;;7.01;59.78;94651.41;5011808;28;20083;-62
2022/04/05 07:18:55;;;;;;;9.65;8.75;;;;;;;6.95;60.64;94594.41;5011786;28;20642;-62
2022/04/05 07:21:20;;;;;;;8.93;6.93;;;;;;;6.22;60.75;94517.53;5010923;28;20069;-62
2022/04/05 07:23:49;;;;;;;9.05;8.02;;;;;;;6.70;59.17;94538.31;5011680;28;20018;-63
2022/04/05 07:26:14;;;;;;;7.13;6.30;;;;;;;7.30;59.82;94675.72;5011607;28;20550;-62
2022/04/05 07:28:40;;;;;;;8.63;7.80;;;;;;;7.70;60.98;94746.69;5011499;28;20121;-62
2022/04/05 07:31:05;;;;;;;7.03;6.30;;;;;;;6.25;60.99;94556.56;5011535;28;20105;-63
2022/04/05 07:33:31;;;;;;;8.80;7.90;;;;;;;7.13;59.75;94672.88;5011626;28;20390;-62
2022/04/05 07:35:57;;;;;;;8.23;7.43;;;;;;;8.00;59.95;94742.66;5011003;28;20355;-64
2022/04/05 07:38:22;;;;;;;8.88;7.40;;;;;;;8.17;59.72;94734.06;5011551;28;20033;-64
2022/04/05 07:40:47;;;;;;;8.60;7.80;;;;;;;8.03;59.29;94728.81;5011260;28;20025;-64
2022/04/05 07:43:15;;;;;;;8.32;7.53;;;;;;;8.53;57.60;94671.25;5011476;28;20045;-63
2022/04/05 07:45:40;;;;;;;7.95;7.25;;;;;;;8.12;57.79;94660.00;5011150;28;20040;-63
2022/04/05 07:48:06;;;;;;;9.05;7.80;;;;;;;7.46;58.13;94583.59;5011199;28;20030;-63
2022/04/05 07:50:31;;;;;;;8.60;7.20;;;;;;;7.96;59.70;94739.03;5010629;28;20187;-62
2022/04/05 07:52:57;;;;;;;8.00;7.20;;;;;;;8.43;57.24;94699.88;5010951;28;20026;-63
2022/04/05 07:55:22;;;;;;;6.85;4.93;;;;;;;6.55;60.21;94612.59;5011453;28;20251;-63
2022/04/05 07:57:49;;;;;;;9.25;7.00;;;;;;;8.19;58.96;94721.31;4993559;28;20061;-63
2022/04/05 08:00:15;;;;;;;10.02;6.90;;;;;;;8.40;58.59;94758.81;5011047;28;20374;-63
2022/04/05 08:02:41;;;;;;;8.45;6.43;;;;;;;6.85;59.01;94554.97;5011295;28;20037;-63
2022/04/05 08:05:07;;;;;;;8.13;7.13;;;;;;;7.31;59.88;94623.59;5011358;28;20030;-62
2022/04/05 08:07:32;;;;;;;8.40;7.05;;;;;;;7.64;60.06;94685.13;5011045;28;20482;-66
2022/04/05 08:09:58;;;;;;;7.45;6.75;;;;;;;7.48;58.39;94564.78;4993582;28;20383;-66
2022/04/05 08:12:23;;;;;;;7.80;7.10;;;;;;;8.15;57.92;94588.69;5010700;28;20026;-67
2022/04/05 08:14:49;;;;;;;6.90;6.20;;;;;;;7.74;60.18;94713.25;5015059;28;20026;-67
2022/04/05 08:17:14;;;;;;;7.22;5.75;;;;;;;6.77;61.50;94625.94;5015251;28;20526;-66
2022/04/05 08:19:40;;;;;;;6.85;6.07;;;;;;;6.96;61.51;94601.28;5015188;28;20033;-66
2022/04/05 08:22:08;;;;;;;8.52;7.18;;;;;;;8.27;61.13;94781.56;5014830;28;20506;-67
2022/04/05 08:24:34;;;;;;;6.68;5.80;;;;;;;7.53;61.41;94663.38;5015057;28;20022;-66
2022/04/05 08:27:00;;;;;;;7.10;6.40;;;;;;;7.91;59.82;94641.94;5014773;28;20040;-67
2022/04/05 08:29:26;;;;;;;6.30;5.70;;;;;;;7.42;60.67;94624.97;5015081;28;20093;-66
2022/04/05 08:31:51;;;;;;;6.60;5.78;;;;;;;6.77;61.55;94586.28;5014157;28;20471;-68
2022/04/05 08:34:18;;;;;;;7.30;5.97;;;;;;;7.11;60.32;94577.16;5014959;28;20022;-67
2022/04/05 08:36:44;;;;;;;5.90;5.35;;;;;;;7.77;60.02;94652.53;5014787;28;20391;-67
2022/04/05 08:39:10;;;;;;;7.22;5.55;;;;;;;8.06;60.29;94789.13;5015047;28;20331;-67
2022/04/05 08:41:35;;;;;;;6.57;5.10;;;;;;;8.73;59.06;94767.31;5014468;28;20024;-67
2022/04/05 08:44:02;;;;;;;5.07;3.58;;;;;;;6.75;60.75;94596.34;5014744;28;20509;-67
2022/04/05 08:46:32;;;;;;;5.43;4.25;;;;;;;7.65;61.10;94744.16;5014655;28;20088;-66
2022/04/05 08:48:58;;;;;;;5.63;4.70;;;;;;;8.18;60.17;94768.22;5014491;28;20130;-67
2022/04/05 08:51:24;;;;;;;4.82;4.38;;;;;;;8.29;59.15;94760.81;5013761;28;20026;-67
2022/04/05 08:53:49;;;;;;;7.68;4.97;;;;;;;7.60;58.19;94570.34;4996472;28;20033;-67
2022/04/05 08:56:15;;;;;;;6.10;3.63;;;;;;;7.66;58.79;94676.88;5014394;28;20479;-67
2022/04/05 08:58:40;;;;;;;4.13;3.40;;;;;;;7.30;58.52;94583.13;5014309;28;20116;-66
2022/04/05 09:01:06;;;;;;;4.80;4.32;;;;;;;8.30;56.84;94636.00;5013745;28;20076;-68
2022/04/05 09:03:33;;;;;;;3.45;2.75;;;;;;;8.34;59.02;94788.03;5014074;28;20084;-66
2022/04/05 09:06:18;;;;;;;5.13;3.58;;;;;;;7.69;57.31;94608.25;5014279;28;20041;-67
2022/04/05 09:08:47;;;;;;;4.43;4.03;;;;;;;8.33;57.29;94675.13;5013910;28;20048;-67
2022/04/05 09:11:13;;;;;;;4.40;4.00;;;;;;;8.64;58.06;94700.97;5013484;28;20092;-67
2022/04/05 09:13:39;;;;;;;5.53;3.65;;;;;;;8.89;58.84;94787.09;5013787;28;20560;-66
2022/04/05 09:26:13;;;;;;;4.45;3.60;;;;;;;8.27;59.74;94672.91;5013087;28;20512;-67
2022/04/05 09:28:41;;;;;;;4.70;4.10;;;;;;;9.06;57.86;94723.56;5013707;28;20080;-67
2022/04/05 09:31:12;;;;;;;5.00;3.80;;;;;;;9.83;55.89;94639.94;5013449;28;20113;-67
2022/04/05 09:33:41;;;;;;;6.00;4.30;;;;;;;9.35;58.51;94762.09;5013919;28;20037;-67
2022/04/05 09:36:07;;;;;;;4.95;4.05;;;;;;;9.30;59.75;94783.44;5013928;28;20068;-67
2022/04/05 09:38:32;;;;;;;5.13;3.65;;;;;;;8.19;59.96;94644.47;5013674;28;20026;-67
2022/04/05 09:41:18;;;;;;;5.00;4.50;;;;;;;9.60;58.54;94736.75;5013520;28;20033;-66
2022/04/05 09:43:52;;;;;;;4.20;3.80;;;;;;;9.50;58.76;94774.97;5013804;28;20029;-66
2022/04/05 09:46:17;;;;;;;3.78;3.30;;;;;;;8.19;58.45;94568.47;5013683;28;20470;-68
2022/04/05 09:48:45;;;;;;;4.78;3.95;;;;;;;8.52;58.45;94655.66;5013523;28;20033;-67
2022/04/05 09:51:14;;;;;;;4.32;3.38;;;;;;;8.68;58.17;94625.03;5013164;28;20112;-66
2022/04/05 09:53:40;;;;;;;4.25;3.80;;;;;;;10.81;55.68;94789.38;4995917;28;20177;-67
2022/04/05 09:56:13;;;;;;;3.97;3.58;;;;;;;8.75;56.95;94617.44;5013293;28;20101;-67
2022/04/05 09:58:49;;;;;;;4.05;3.40;;;;;;;8.57;56.36;94568.06;4995684;28;20115;-68
2022/04/05 10:01:15;;;;;;;4.90;3.55;;;;;;;9.20;57.01;94659.75;5012906;28;20076;-68
2022/04/05 10:04:02;;;;;;;3.00;2.72;;;;;;;8.69;57.31;94623.94;5013357;28;20222;-67
2022/04/05 10:06:30;;;;;;;3.53;3.22;;;;;;;10.29;53.34;94651.88;5013192;28;20451;-68
2022/04/05 10:08:56;;;;;;;5.88;3.75;;;;;;;9.77;54.28;94645.69;5013094;28;20053;-70
2022/04/05 10:11:30;;;;;;;4.75;3.50;;;;;;;8.82;56.73;94633.69;5012607;28;20022;-68
2022/04/05 10:13:56;;;;;;;3.58;3.28;;;;;;;10.88;54.24;94790.47;5013144;28;20468;-68
2022/04/05 10:16:25;;;;;;;4.90;3.45;;;;;;;10.35;53.05;94644.53;5013086;28;20022;-67
2022/04/05 10:18:52;;;;;;;4.43;3.53;;;;;;;11.20;51.76;94721.84;5013045;28;20034;-68
2022/04/05 10:21:20;;;;;;;3.70;3.30;;;;;;;10.06;54.16;94648.56;5012749;28;20084;-68
2022/04/05 10:23:47;;;;;;;2.83;2.63;;;;;;;9.93;52.88;94632.75;4995307;28;20096;-67
2022/04/05 10:26:16;;;;;;;4.20;2.85;;;;;;;10.11;53.93;94674.19;5012687;28;20521;-67
2022/04/05 10:28:45;;;;;;;4.38;2.90;;;;;;;10.14;54.09;94745.34;5012822;28;20037;-67
2022/04/05 10:31:38;;;;;;;3.05;2.75;;;;;;;10.76;53.92;94749.63;5012374;28;20040;-68
2022/04/05 10:34:25;;;;;;;3.15;2.85;;;;;;;11.36;53.31;94797.47;5012068;28;20052;-68
2022/04/05 10:37:17;;;;;;;2.40;2.20;;;;;;;9.76;56.72;94808.81;5012414;28;20017;-67
2022/04/05 10:39:43;;;;;;;3.40;3.10;;;;;;;9.61;56.30;94642.72;5012438;28;20034;-68
2022/04/05 10:42:09;;;;;;;3.58;3.10;;;;;;;10.15;57.30;94800.06;5012090;28;20041;-67
2022/04/05 10:44:39;;;;;;;4.35;2.70;;;;;;;9.96;58.45;94826.09;4994909;28;20033;-66
2022/04/05 10:47:07;;;;;;;3.40;3.10;;;;;;;8.60;58.71;94631.09;5012065;28;20037;-67
2022/04/05 10:49:43;;;;;;;3.88;3.33;;;;;;;9.39;58.90;94664.84;5012343;28;20026;-67
2022/04/05 10:52:28;;;;;;;4.22;3.28;;;;;;;8.92;59.22;94656.53;5012060;28;20022;-67
2022/04/05 10:55:04;;;;;;;4.25;3.22;;;;;;;9.91;60.25;94805.75;5012367;28;20149;-68
2022/04/05 10:57:37;;;;;;;3.88;3.47;;;;;;;10.28;58.36;94743.34;5012123;28;20124;-69
2022/04/05 11:00:33;;;;;;;6.50;3.67;;;;;;;9.27;59.38;94628.28;5011744;28;20041;-67
2022/04/05 11:02:58;;;;;;;2.38;2.17;;;;;;;9.69;60.63;94796.00;5008129;28;20044;-67
2022/04/05 11:05:24;;;;;;;3.63;3.33;;;;;;;9.67;60.91;94803.47;5011962;28;20033;-68
2022/04/05 11:07:52;;;;;;;4.65;3.67;;;;;;;10.35;59.08;94793.41;5012050;28;20026;-68
2022/04/05 11:10:26;;;;;;;4.18;3.67;;;;;;;9.93;58.40;94704.47;5011684;28;20044;-68
2022/04/05 11:13:13;;;;;;;4.35;3.15;;;;;;;9.22;59.33;94603.75;5012234;28;20708;-67
2022/04/05 11:15:47;;;;;;;4.13;3.08;;;;;;;9.98;59.47;94805.28;5011843;28;20111;-67
2022/04/05 11:18:17;;;;;;;4.47;3.50;;;;;;;10.26;59.19;94809.31;5011801;28;20057;-66
2022/04/05 11:20:45;;;;;;;3.80;3.40;;;;;;;9.36;58.54;94613.13;5011289;28;20018;-68
2022/04/05 11:23:13;;;;;;;3.75;3.28;;;;;;;10.00;58.91;94720.75;5011717;28;20080;-66
2022/04/05 11:25:39;;;;;;;2.55;2.35;;;;;;;9.03;60.87;94726.78;5011800;28;20025;-67
2022/04/05 11:28:11;;;;;;;2.92;2.53;;;;;;;9.86;60.26;94804.00;5011529;28;20113;-67
2022/04/05 11:30:39;;;;;;;3.45;2.83;;;;;;;8.95;60.86;94641.84;5011623;28;20772;-67
2022/04/05 11:33:16;;;;;;;3.05;2.67;;;;;;;9.95;60.52;94792.66;4993977;28;20018;-67
2022/04/05 11:35:47;;;;;;;2.92;2.58;;;;;;;9.99;59.38;94798.91;5011764;28;20414;-68
2022/04/05 11:38:27;;;;;;;4.50;2.95;;;;;;;9.99;58.75;94782.97;4994056;28;20060;-66
2022/04/05 11:40:54;;;;;;;4.07;3.10;;;;;;;11.19;56.22;94781.50;5011206;28;20061;-67
2022/04/05 11:43:24;;;;;;;3.85;3.58;;;;;;;10.14;55.14;94585.88;5011293;28;20160;-67
2022/04/05 11:45:56;;;;;;;4.82;2.70;;;;;;;9.88;57.26;94623.88;5011258;28;20048;-68
2022/04/05 11:48:23;;;;;;;5.57;3.45;;;;;;;10.49;55.58;94625.72;5011018;28;20061;-67
2022/04/05 11:50:49;;;;;;;4.80;3.17;;;;;;;10.44;55.16;94639.19;4993268;28;20034;-67
2022/04/05 11:53:28;;;;;;;3.72;3.42;;;;;;;11.95;55.36;94778.94;5011244;28;20033;-68
2022/04/05 11:56:06;;;;;;;3.55;3.25;;;;;;;12.12;53.90;94782.63;5011597;28;20030;-68
2022/04/05 11:58:34;;;;;;;3.40;3.08;;;;;;;10.59;54.52;94604.13;5011397;28;20030;-68
2022/04/05 12:01:02;;;;;;;4.45;3.55;;;;;;;10.44;58.03;94710.97;5010765;28;20545;-70
2022/04/05 12:03:27;;;;;;;3.42;3.13;;;;;;;10.45;57.13;94622.16;5011223;28;20026;-68
2022/04/05 12:05:53;;;;;;;3.88;3.50;;;;;;;11.27;54.15;94566.94;5010801;28;20364;-69
2022/04/05 12:08:18;;;;;;;3.30;3.00;;;;;;;12.11;55.84;94783.72;5011137;28;20038;-68
2022/04/05 12:10:44;;;;;;;2.90;2.70;;;;;;;11.07;55.83;94622.47;5010777;28;20034;-68
2022/04/05 12:13:10;;;;;;;4.55;2.80;;;;;;;10.67;58.98;94729.13;5011171;28;20037;-68
2022/04/05 12:15:38;;;;;;;3.67;2.92;;;;;;;11.45;57.64;94752.94;5010996;28;20026;-68
2022/04/05 12:18:21;;;;;;;3.00;2.70;;;;;;;11.42;58.30;94771.44;5010746;28;20033;-68
2022/04/05 12:21:03;;;;;;;3.10;2.80;;;;;;;10.06;59.91;94650.44;4993139;28;20084;-68
2022/04/05 12:23:33;;;;;;;3.05;2.75;;;;;;;11.29;56.85;94640.06;5010903;28;20712;-69